Terminal Aerodrome Forecast
Issued by NWS

Home | Current Version | Previous Version | Text Only | Print | Product List | Glossary On
Versions: 1 2 3 4 5 6 7 8 9 10 11 12 13 14 15 16
000
FTUS46 KMFR 050532
TAFLMT
TAF
KLMT 050532Z 0506/0606 29005KT P6SM BKN080
     FM051100 VRB02KT P6SM SCT007
     FM051600 34003KT P6SM SKC
     FM052200 32006KT P6SM SKC=

USA.gov is the U.S. government's official web portal to all federal, state and local government web resources and services.